Time;durP1;ratioP1;P1;durP2;ratioP2;P2;SDS_P1;SDS_P2;PMS_P1;PMS_P2;Temp;Humidity;BMP_temperature;BMP_pressure;BME280_temperature;BME280_humidity;BME280_pressure;Samples;Min_cycle;Max_cycle;Signal;HPM_P1;HPM_P2
2023/10/21 00:02:21;;;;;;;2.28;1.05;;;20.50;58.00;;;;;;4991265;28;20121;-50
2023/10/21 00:04:47;;;;;;;2.20;0.95;;;20.50;57.90;;;;;;5006754;28;20022;-50
2023/10/21 00:07:13;;;;;;;1.20;0.70;;;20.50;57.90;;;;;;5001811;28;20112;-51
2023/10/21 00:09:38;;;;;;;1.42;0.85;;;20.50;57.90;;;;;;5005110;28;20038;-52
2023/10/21 00:12:06;;;;;;;1.50;0.93;;;20.50;57.90;;;;;;5003298;28;20037;-54
2023/10/21 00:14:34;;;;;;;2.03;1.00;;;20.50;57.80;;;;;;5011981;28;20030;-50
2023/10/21 00:17:00;;;;;;;1.88;1.02;;;20.50;57.80;;;;;;5006163;28;20041;-53
2023/10/21 00:19:25;;;;;;;1.80;0.88;;;20.50;57.80;;;;;;5010134;28;20386;-53
2023/10/21 00:21:53;;;;;;;2.78;0.90;;;20.40;57.70;;;;;;5006293;28;20030;-54
2023/10/21 00:24:19;;;;;;;1.33;0.90;;;20.50;57.70;;;;;;5005366;28;20033;-52
2023/10/21 00:26:47;;;;;;;1.80;1.00;;;20.40;57.60;;;;;;5001474;28;20087;-53
2023/10/21 00:29:16;;;;;;;1.67;1.10;;;20.50;57.60;;;;;;5002353;28;20050;-50
2023/10/21 00:31:43;;;;;;;1.00;0.90;;;20.40;57.50;;;;;;5003261;28;21806;-52
2023/10/21 00:34:10;;;;;;;2.25;1.35;;;20.40;57.50;;;;;;5008163;28;20411;-52
2023/10/21 00:36:36;;;;;;;2.92;0.93;;;20.50;57.50;;;;;;5004516;28;20445;-49
2023/10/21 00:39:02;;;;;;;1.30;0.80;;;20.40;57.40;;;;;;5008927;28;20030;-48
2023/10/21 00:41:28;;;;;;;1.60;0.80;;;20.50;57.40;;;;;;5008360;28;20026;-52
2023/10/21 00:43:54;;;;;;;1.83;0.80;;;20.40;57.30;;;;;;4997047;28;20096;-52
2023/10/21 00:46:22;;;;;;;2.20;0.80;;;20.40;57.30;;;;;;5008061;28;20081;-50
2023/10/21 00:48:48;;;;;;;1.70;0.80;;;20.40;57.30;;;;;;5007544;28;20410;-51
2023/10/21 00:51:15;;;;;;;1.23;0.80;;;20.40;57.20;;;;;;5008191;28;20026;-53
2023/10/21 00:53:42;;;;;;;1.17;0.75;;;20.40;57.20;;;;;;5008380;28;20061;-53
2023/10/21 00:56:08;;;;;;;1.33;1.00;;;20.40;57.20;;;;;;4990463;28;20034;-50
2023/10/21 00:58:35;;;;;;;1.63;0.85;;;20.40;57.20;;;;;;5012522;28;20045;-50
2023/10/21 01:01:09;;;;;;;1.63;0.88;;;20.40;57.30;;;;;;5006597;28;20026;-50
2023/10/21 01:03:36;;;;;;;1.63;0.80;;;20.40;57.30;;;;;;5009540;28;20069;-49
2023/10/21 01:06:03;;;;;;;3.28;0.82;;;20.40;57.30;;;;;;4996914;28;20125;-54
2023/10/21 01:08:29;;;;;;;1.90;0.80;;;20.40;57.20;;;;;;5012040;28;20113;-51
2023/10/21 01:10:56;;;;;;;1.77;0.90;;;20.40;57.20;;;;;;5007179;28;20018;-53
2023/10/21 01:13:22;;;;;;;1.33;0.73;;;20.40;57.20;;;;;;4999474;28;20103;-51
2023/10/21 01:15:48;;;;;;;1.25;0.82;;;20.40;57.20;;;;;;5004537;28;20049;-53
2023/10/21 01:18:13;;;;;;;1.02;0.70;;;20.40;57.20;;;;;;5007448;28;20434;-53
2023/10/21 01:20:41;;;;;;;1.20;0.70;;;20.40;57.20;;;;;;5003025;28;20064;-51
2023/10/21 01:23:08;;;;;;;1.25;0.90;;;20.40;57.20;;;;;;5009939;28;20036;-51
2023/10/21 01:25:34;;;;;;;1.48;0.70;;;20.40;57.20;;;;;;5010708;28;20033;-51
2023/10/21 01:28:01;;;;;;;1.60;0.90;;;20.40;57.20;;;;;;5007588;28;20057;-52
2023/10/21 01:30:27;;;;;;;2.10;0.77;;;20.40;57.20;;;;;;5011475;28;20168;-52
2023/10/21 01:32:53;;;;;;;1.35;0.70;;;20.40;57.20;;;;;;4995306;28;20053;-51
2023/10/21 01:35:21;;;;;;;1.10;0.70;;;20.40;57.20;;;;;;5008009;28;20208;-52
2023/10/21 01:37:47;;;;;;;1.60;1.00;;;20.40;57.20;;;;;;5006361;28;20029;-55
2023/10/21 01:40:13;;;;;;;0.85;0.75;;;20.40;57.20;;;;;;4997499;28;20026;-52
2023/10/21 01:42:40;;;;;;;1.38;0.77;;;20.40;57.20;;;;;;5007718;28;20033;-51
2023/10/21 01:45:07;;;;;;;2.03;0.90;;;20.40;57.20;;;;;;4991410;28;20049;-50
2023/10/21 01:47:35;;;;;;;1.63;0.70;;;20.40;57.20;;;;;;5010008;28;20353;-53
2023/10/21 01:50:03;;;;;;;1.02;0.60;;;20.40;57.20;;;;;;5001700;28;20037;-53
2023/10/21 01:52:29;;;;;;;3.17;0.70;;;20.40;57.20;;;;;;5003700;28;20037;-54
2023/10/21 01:54:55;;;;;;;0.93;0.60;;;20.40;57.20;;;;;;5004744;28;20033;-51
2023/10/21 01:57:21;;;;;;;4.78;1.10;;;20.40;57.20;;;;;;5009512;28;20041;-51
2023/10/21 01:59:47;;;;;;;1.10;0.77;;;20.40;57.20;;;;;;4994184;28;20036;-53
2023/10/21 02:02:13;;;;;;;0.98;0.52;;;20.40;57.20;;;;;;4997394;28;20044;-53
2023/10/21 02:04:38;;;;;;;1.33;0.70;;;20.40;57.20;;;;;;4998204;28;20405;-54
2023/10/21 02:07:04;;;;;;;1.63;0.70;;;20.40;57.20;;;;;;5004663;28;20437;-52
2023/10/21 02:09:30;;;;;;;1.85;0.80;;;20.30;57.10;;;;;;5008478;28;20060;-54
2023/10/21 02:11:56;;;;;;;1.00;0.60;;;20.40;57.20;;;;;;5011062;28;20357;-52
2023/10/21 02:14:23;;;;;;;1.38;0.60;;;20.40;57.20;;;;;;4995690;28;20404;-51
2023/10/21 02:16:53;;;;;;;1.90;0.80;;;20.40;57.20;;;;;;4976662;28;20461;-48
2023/10/21 02:19:19;;;;;;;1.80;0.65;;;20.40;57.10;;;;;;5001439;28;20034;-49
2023/10/21 02:21:47;;;;;;;2.03;0.80;;;20.40;57.10;;;;;;4993537;28;20033;-54
2023/10/21 02:24:13;;;;;;;0.77;0.60;;;20.40;57.10;;;;;;5005695;28;20591;-46
2023/10/21 02:26:39;;;;;;;2.00;0.85;;;20.40;57.10;;;;;;4993488;28;20026;-50
2023/10/21 02:29:05;;;;;;;1.40;0.70;;;20.40;57.10;;;;;;5009681;28;20124;-51
2023/10/21 02:31:30;;;;;;;1.20;0.70;;;20.40;57.10;;;;;;4988443;28;20026;-54
2023/10/21 02:33:57;;;;;;;1.20;0.70;;;20.30;57.00;;;;;;5009314;28;20117;-50
2023/10/21 02:36:24;;;;;;;1.27;0.75;;;20.30;57.00;;;;;;5008195;28;20096;-51
2023/10/21 02:38:53;;;;;;;1.38;0.80;;;20.40;57.70;;;;;;5007353;28;20038;-50
2023/10/21 02:41:20;;;;;;;1.10;0.60;;;20.30;57.00;;;;;;5002566;28;20112;-52
2023/10/21 02:43:46;;;;;;;1.75;0.80;;;20.30;57.00;;;;;;5004582;28;20034;-53
2023/10/21 02:46:13;;;;;;;1.95;0.90;;;20.30;57.00;;;;;;4991707;28;20084;-49
2023/10/21 02:48:40;;;;;;;2.05;0.80;;;20.30;57.00;;;;;;4995334;28;20050;-52
2023/10/21 02:51:10;;;;;;;0.88;0.60;;;20.30;57.00;;;;;;5004098;28;20087;-55
2023/10/21 02:53:37;;;;;;;1.15;0.57;;;20.30;57.10;;;;;;5008374;28;20042;-51
2023/10/21 02:56:05;;;;;;;0.85;0.50;;;20.30;57.00;;;;;;5010886;28;20036;-51
2023/10/21 02:58:32;;;;;;;1.15;0.80;;;20.30;57.10;;;;;;5001814;28;20041;-52
2023/10/21 03:01:00;;;;;;;2.08;0.47;;;20.30;57.10;;;;;;5004337;28;20030;-50
2023/10/21 03:03:26;;;;;;;1.75;0.70;;;20.30;57.10;;;;;;4987307;28;20034;-54
2023/10/21 03:05:52;;;;;;;2.10;0.90;;;20.30;57.10;;;;;;5004193;28;20022;-50
2023/10/21 03:08:18;;;;;;;1.23;0.70;;;20.30;57.20;;;;;;4988234;28;20322;-49
2023/10/21 03:10:44;;;;;;;1.20;0.82;;;20.30;57.80;;;;;;5002876;28;21265;-52
2023/10/21 03:13:10;;;;;;;1.52;0.80;;;20.30;57.20;;;;;;5006914;28;20060;-50
2023/10/21 03:15:36;;;;;;;0.70;0.63;;;20.30;57.20;;;;;;5005138;28;20431;-53
2023/10/21 03:18:02;;;;;;;1.23;0.70;;;20.30;57.20;;;;;;5001998;28;20040;-51
2023/10/21 03:20:32;;;;;;;1.38;0.80;;;20.30;57.20;;;;;;5004101;28;20140;-53
2023/10/21 03:22:58;;;;;;;1.50;0.63;;;20.30;57.20;;;;;;5005045;28;20025;-52
2023/10/21 03:25:24;;;;;;;1.95;0.90;;;20.40;57.30;;;;;;4988822;28;20103;-51
2023/10/21 03:27:49;;;;;;;2.88;1.00;;;20.30;57.20;;;;;;5003023;28;20026;-50
2023/10/21 03:30:16;;;;;;;0.95;0.63;;;20.30;57.20;;;;;;5002685;28;20045;-46
2023/10/21 03:32:42;;;;;;;2.80;0.88;;;20.30;57.20;;;;;;5003811;28;20037;-49
2023/10/21 03:35:09;;;;;;;2.80;0.75;;;20.30;57.20;;;;;;5000772;28;20037;-50
2023/10/21 03:37:35;;;;;;;2.03;0.98;;;20.30;57.20;;;;;;5005681;28;20055;-53
2023/10/21 03:40:05;;;;;;;1.30;0.80;;;20.40;57.30;;;;;;5002068;28;20045;-51
2023/10/21 03:42:31;;;;;;;1.00;0.70;;;20.30;57.20;;;;;;4993137;28;20029;-51
2023/10/21 03:44:57;;;;;;;1.60;0.80;;;20.30;57.20;;;;;;5007974;28;20437;-53
2023/10/21 03:47:23;;;;;;;1.50;0.70;;;20.30;57.20;;;;;;5010887;28;20125;-52
2023/10/21 03:49:49;;;;;;;1.48;0.68;;;20.30;57.20;;;;;;5004526;28;20050;-53
2023/10/21 03:52:15;;;;;;;1.23;0.70;;;20.40;57.30;;;;;;4998532;28;20061;-47
2023/10/21 03:54:40;;;;;;;2.90;0.60;;;20.30;57.30;;;;;;5007009;28;20464;-52
2023/10/21 03:57:06;;;;;;;1.90;0.77;;;20.40;57.30;;;;;;5007045;28;20041;-49
2023/10/21 03:59:32;;;;;;;1.63;0.73;;;20.30;57.20;;;;;;5000207;28;20409;-51
2023/10/21 04:01:58;;;;;;;0.90;0.60;;;20.30;57.20;;;;;;5002920;28;20021;-51
2023/10/21 04:04:24;;;;;;;1.48;0.85;;;20.30;57.20;;;;;;5006334;28;20080;-51
2023/10/21 04:06:49;;;;;;;0.95;0.63;;;20.30;57.20;;;;;;5005138;28;20122;-50
2023/10/21 04:09:15;;;;;;;0.90;0.50;;;20.30;57.20;;;;;;5008202;28;20037;-50
2023/10/21 04:11:42;;;;;;;1.85;0.65;;;20.30;57.20;;;;;;5004281;28;20053;-48
2023/10/21 04:14:10;;;;;;;1.25;0.70;;;20.30;57.20;;;;;;4996726;28;20029;-49
2023/10/21 04:16:36;;;;;;;1.75;0.70;;;20.30;57.20;;;;;;5001650;28;20663;-49
2023/10/21 04:19:02;;;;;;;1.48;0.80;;;20.30;57.20;;;;;;5004158;28;20026;-53
2023/10/21 04:21:28;;;;;;;1.33;0.70;;;20.30;57.20;;;;;;5003638;28;20030;-46
2023/10/21 04:23:53;;;;;;;1.77;0.60;;;20.30;57.20;;;;;;5007289;28;20052;-49
2023/10/21 04:26:19;;;;;;;0.98;0.70;;;20.30;57.20;;;;;;5004517;28;20054;-51
2023/10/21 04:28:45;;;;;;;1.05;0.60;;;20.40;57.30;;;;;;5008397;28;20503;-51
2023/10/21 04:31:11;;;;;;;1.27;0.60;;;20.30;57.20;;;;;;5006034;28;20467;-53
2023/10/21 04:33:37;;;;;;;1.45;0.80;;;20.30;57.20;;;;;;5007718;28;20030;-53
2023/10/21 04:36:03;;;;;;;0.93;0.60;;;20.30;57.20;;;;;;5002700;28;20034;-53
2023/10/21 04:38:28;;;;;;;1.48;0.75;;;20.30;57.20;;;;;;4999917;28;20405;-50
2023/10/21 04:40:54;;;;;;;1.20;0.75;;;20.30;57.20;;;;;;5006959;28;20033;-52
2023/10/21 04:43:20;;;;;;;2.05;0.70;;;20.40;57.30;;;;;;5007821;28;20044;-50
2023/10/21 04:45:46;;;;;;;1.15;0.70;;;20.30;57.20;;;;;;5009064;28;20079;-53
2023/10/21 04:48:12;;;;;;;1.55;0.90;;;20.40;57.30;;;;;;5002896;28;20441;-53
2023/10/21 04:50:37;;;;;;;1.65;0.80;;;20.30;57.20;;;;;;5000124;28;20030;-51
2023/10/21 04:53:03;;;;;;;1.20;0.70;;;20.40;57.30;;;;;;5004975;28;20026;-54
2023/10/21 04:55:29;;;;;;;1.85;0.85;;;20.30;57.30;;;;;;5001578;28;20048;-51
2023/10/21 04:57:55;;;;;;;1.88;0.80;;;20.40;57.30;;;;;;5002907;28;20030;-51
2023/10/21 05:00:21;;;;;;;1.38;0.70;;;20.30;57.30;;;;;;5006294;28;20041;-53
2023/10/21 05:02:46;;;;;;;1.77;0.63;;;20.30;57.30;;;;;;5002472;28;20037;-51
2023/10/21 05:05:12;;;;;;;1.75;0.65;;;20.30;57.30;;;;;;5009885;28;20105;-53
2023/10/21 05:07:39;;;;;;;2.47;0.80;;;20.30;57.30;;;;;;5009557;28;20487;-49
2023/10/21 05:10:05;;;;;;;0.98;0.40;;;20.40;57.30;;;;;;5012458;28;20053;-53
2023/10/21 05:12:31;;;;;;;0.90;0.50;;;20.40;57.30;;;;;;5012211;28;20034;-47
2023/10/21 05:14:57;;;;;;;1.17;0.70;;;20.40;57.30;;;;;;5013441;28;20491;-50
2023/10/21 05:17:22;;;;;;;1.95;0.70;;;20.30;57.30;;;;;;5008378;28;20076;-51
2023/10/21 05:19:49;;;;;;;1.52;0.60;;;20.30;57.20;;;;;;5012919;28;20045;-55
2023/10/21 05:22:15;;;;;;;1.45;0.60;;;20.30;57.20;;;;;;5013285;28;20018;-54
2023/10/21 05:24:41;;;;;;;1.95;0.63;;;20.40;57.30;;;;;;5024456;28;20112;-53
2023/10/21 05:27:09;;;;;;;1.65;0.60;;;20.30;57.30;;;;;;5031105;28;20034;-53
2023/10/21 05:29:35;;;;;;;1.42;0.70;;;20.30;57.30;;;;;;5014563;28;20176;-48
2023/10/21 05:32:01;;;;;;;1.15;0.65;;;20.30;57.30;;;;;;5015319;28;20053;-54
2023/10/21 05:34:27;;;;;;;1.50;0.70;;;20.30;57.30;;;;;;5015200;28;20481;-50
2023/10/21 05:36:53;;;;;;;0.88;0.45;;;20.30;57.30;;;;;;5016130;28;20072;-51
2023/10/21 05:39:19;;;;;;;1.13;0.50;;;20.40;57.30;;;;;;5015650;28;20022;-52
2023/10/21 05:41:44;;;;;;;1.02;0.60;;;20.40;57.40;;;;;;5003781;28;20092;-51
2023/10/21 05:44:10;;;;;;;0.45;0.40;;;20.30;57.30;;;;;;5014939;28;20034;-51
2023/10/21 05:46:36;;;;;;;0.77;0.50;;;20.40;57.40;;;;;;5015170;28;20441;-47
2023/10/21 05:49:02;;;;;;;1.55;0.75;;;20.40;57.40;;;;;;5016545;28;20095;-52
2023/10/21 05:51:29;;;;;;;1.75;0.80;;;20.30;57.30;;;;;;5013857;28;20036;-47
2023/10/21 05:53:56;;;;;;;0.77;0.47;;;20.40;57.50;;;;;;5016413;28;20084;-49
2023/10/21 05:56:22;;;;;;;2.35;0.70;;;20.30;57.40;;;;;;5015138;28;20037;-49
2023/10/21 05:58:48;;;;;;;0.82;0.50;;;20.30;57.40;;;;;;5014685;28;20026;-47
2023/10/21 06:01:15;;;;;;;1.42;0.77;;;20.30;57.40;;;;;;5015355;28;20412;-46
2023/10/21 06:03:41;;;;;;;1.48;0.52;;;20.40;57.50;;;;;;5015206;28;20026;-53
2023/10/21 06:06:07;;;;;;;1.48;0.77;;;20.40;57.40;;;;;;5014717;28;20022;-53
2023/10/21 06:08:33;;;;;;;1.25;0.60;;;20.40;57.50;;;;;;5006910;28;20361;-51
2023/10/21 06:10:59;;;;;;;0.90;0.57;;;20.40;57.40;;;;;;5013290;28;20108;-53
2023/10/21 06:13:24;;;;;;;1.05;0.50;;;20.30;57.40;;;;;;5012424;28;20169;-51
2023/10/21 06:15:51;;;;;;;1.92;0.70;;;20.30;57.40;;;;;;5013956;28;20053;-52
2023/10/21 06:18:17;;;;;;;1.75;0.73;;;20.30;57.40;;;;;;5006815;28;20018;-54
2023/10/21 06:20:50;;;;;;;1.10;0.50;;;20.30;57.40;;;;;;5010612;28;20417;-54
2023/10/21 06:23:16;;;;;;;1.25;0.40;;;20.40;57.40;;;;;;5014718;28;20480;-52
2023/10/21 06:25:43;;;;;;;2.22;0.70;;;20.40;57.40;;;;;;5015176;28;20338;-54
2023/10/21 06:28:09;;;;;;;0.85;0.63;;;20.40;57.40;;;;;;5013478;28;20076;-48
2023/10/21 06:30:40;;;;;;;1.20;0.60;;;20.40;57.50;;;;;;5014829;28;20065;-50
2023/10/21 06:33:08;;;;;;;2.03;0.77;;;20.40;57.50;;;;;;5015013;28;20164;-51
2023/10/21 06:35:38;;;;;;;1.60;0.82;;;20.40;57.50;;;;;;5014576;28;20105;-54
2023/10/21 06:38:05;;;;;;;1.42;0.70;;;20.40;57.50;;;;;;5013463;28;20022;-53
2023/10/21 06:40:31;;;;;;;1.00;0.60;;;20.40;57.50;;;;;;5014749;28;20468;-49
2023/10/21 06:42:57;;;;;;;1.73;0.60;;;20.40;57.50;;;;;;5014281;28;20107;-50
2023/10/21 06:45:23;;;;;;;1.02;0.70;;;20.40;57.50;;;;;;5015218;28;20022;-55
2023/10/21 06:47:49;;;;;;;1.35;0.70;;;20.30;57.50;;;;;;5011448;28;20104;-49
2023/10/21 06:50:15;;;;;;;1.67;0.73;;;20.30;57.50;;;;;;5012389;28;20045;-49
2023/10/21 06:52:41;;;;;;;2.22;0.68;;;20.40;57.60;;;;;;5012342;28;20030;-55
2023/10/21 06:55:08;;;;;;;1.90;0.75;;;20.30;57.50;;;;;;5010608;28;20032;-52
2023/10/21 06:57:34;;;;;;;1.30;0.75;;;20.40;57.50;;;;;;5009755;28;20046;-50
2023/10/21 07:00:00;;;;;;;1.10;0.70;;;20.40;57.50;;;;;;5011445;28;20029;-51
2023/10/21 07:02:25;;;;;;;1.33;0.80;;;20.40;57.50;;;;;;4991742;28;20022;-52
2023/10/21 07:04:51;;;;;;;1.80;0.70;;;20.40;57.40;;;;;;5010610;28;20033;-53
2023/10/21 07:07:17;;;;;;;1.40;0.73;;;20.40;57.40;;;;;;5009429;28;20041;-52
2023/10/21 07:09:44;;;;;;;2.28;0.82;;;20.40;57.40;;;;;;5007258;28;20464;-50
2023/10/21 07:12:12;;;;;;;1.60;0.63;;;20.40;57.40;;;;;;5011085;28;20026;-50
2023/10/21 07:14:38;;;;;;;0.95;0.80;;;20.30;57.30;;;;;;5010016;28;20029;-52
2023/10/21 07:17:04;;;;;;;1.67;0.70;;;20.40;57.40;;;;;;5007666;28;20422;-53
2023/10/21 07:19:30;;;;;;;1.33;0.63;;;20.40;57.40;;;;;;5010546;28;20337;-52
2023/10/21 07:21:55;;;;;;;2.95;1.10;;;20.40;57.50;;;;;;5010417;28;20083;-54
2023/10/21 07:24:21;;;;;;;1.55;0.70;;;20.40;57.50;;;;;;5008999;28;20042;-52
2023/10/21 07:26:47;;;;;;;2.25;0.70;;;20.40;57.50;;;;;;5007332;28;20109;-49
2023/10/21 07:29:13;;;;;;;2.58;0.82;;;20.40;57.60;;;;;;5002223;28;20073;-49
2023/10/21 07:31:41;;;;;;;1.70;0.60;;;20.40;57.60;;;;;;5003988;28;20125;-49
2023/10/21 07:34:07;;;;;;;1.85;0.80;;;20.40;57.70;;;;;;5003644;28;20440;-52
2023/10/21 07:36:34;;;;;;;1.90;0.68;;;20.40;57.80;;;;;;5003063;28;20029;-52
2023/10/21 07:38:59;;;;;;;1.33;0.60;;;20.40;57.90;;;;;;5006459;28;20030;-50
2023/10/21 07:41:25;;;;;;;2.13;1.15;;;20.40;57.90;;;;;;5007863;28;20033;-47
2023/10/21 07:43:51;;;;;;;1.38;0.60;;;20.40;58.00;;;;;;5006762;28;20066;-53
2023/10/21 07:46:17;;;;;;;1.65;0.70;;;20.40;58.00;;;;;;5007100;28;20037;-54
2023/10/21 07:48:44;;;;;;;2.13;0.68;;;20.40;58.00;;;;;;5005413;28;20038;-55
2023/10/21 07:51:09;;;;;;;5.95;0.70;;;20.40;58.00;;;;;;5008165;28;20458;-52
2023/10/21 07:53:35;;;;;;;2.67;0.68;;;20.40;58.20;;;;;;5007462;28;20140;-52
2023/10/21 07:56:01;;;;;;;2.53;0.70;;;20.40;58.30;;;;;;5002244;28;20041;-52
2023/10/21 07:58:27;;;;;;;1.92;0.85;;;20.50;58.70;;;;;;5006954;28;20022;-54
2023/10/21 08:00:54;;;;;;;1.65;0.90;;;20.50;58.30;;;;;;5005647;28;20041;-51
2023/10/21 08:03:20;;;;;;;1.60;0.60;;;20.50;58.40;;;;;;5006174;28;20113;-50
2023/10/21 08:05:45;;;;;;;2.33;0.57;;;20.50;58.40;;;;;;5008293;28;21293;-47
2023/10/21 08:08:13;;;;;;;2.25;0.75;;;20.50;58.40;;;;;;5004352;28;20036;-50
2023/10/21 08:10:39;;;;;;;1.13;0.50;;;20.50;58.40;;;;;;5001532;28;20392;-49
2023/10/21 08:13:05;;;;;;;2.03;0.60;;;20.50;58.40;;;;;;5003254;28;20030;-51
2023/10/21 08:15:31;;;;;;;1.67;0.73;;;20.50;58.50;;;;;;5000903;28;20033;-51
2023/10/21 08:17:57;;;;;;;1.08;0.65;;;20.50;58.50;;;;;;4985031;28;20101;-49
2023/10/21 08:20:24;;;;;;;2.40;0.90;;;20.50;58.50;;;;;;5004690;28;20109;-51
2023/10/21 08:22:50;;;;;;;1.60;0.70;;;20.50;58.60;;;;;;5007088;28;20034;-52
2023/10/21 08:25:16;;;;;;;1.38;0.73;;;20.50;58.60;;;;;;5005823;28;20065;-50
2023/10/21 08:27:41;;;;;;;2.50;0.88;;;20.50;58.60;;;;;;5007234;28;20088;-52
2023/10/21 08:30:09;;;;;;;1.10;0.50;;;20.50;58.70;;;;;;5004458;28;20034;-50
2023/10/21 08:32:36;;;;;;;1.63;0.60;;;20.50;58.70;;;;;;5006954;28;20095;-51
2023/10/21 08:35:02;;;;;;;0.70;0.50;;;20.50;58.70;;;;;;5003244;28;20034;-51
2023/10/21 08:37:28;;;;;;;0.68;0.40;;;20.50;58.60;;;;;;5004674;28;20029;-50
2023/10/21 08:39:54;;;;;;;0.95;0.38;;;20.50;58.60;;;;;;5002352;28;20031;-50
2023/10/21 08:42:25;;;;;;;1.60;0.40;;;20.50;58.50;;;;;;5003865;28;20041;-49
2023/10/21 08:44:54;;;;;;;0.40;0.20;;;20.50;58.40;;;;;;5002063;28;20076;-49
2023/10/21 08:47:21;;;;;;;0.98;0.50;;;20.50;59.00;;;;;;5000730;28;20034;-51
2023/10/21 08:49:49;;;;;;;1.58;0.63;;;20.50;58.40;;;;;;5002829;28;20088;-50
2023/10/21 08:52:17;;;;;;;1.00;0.30;;;20.50;58.40;;;;;;5002572;28;20067;-48
2023/10/21 08:54:45;;;;;;;1.05;0.50;;;20.50;58.30;;;;;;5002802;28;20103;-50
2023/10/21 08:57:13;;;;;;;0.93;0.50;;;20.50;58.30;;;;;;5003254;28;20057;-51
2023/10/21 08:59:39;;;;;;;0.77;0.40;;;20.50;58.40;;;;;;5002649;28;20404;-48
2023/10/21 09:02:05;;;;;;;0.82;0.50;;;20.50;58.30;;;;;;5006257;28;20091;-50
2023/10/21 09:04:32;;;;;;;1.85;0.52;;;20.50;58.20;;;;;;5011496;28;20030;-50
2023/10/21 09:07:00;;;;;;;4.88;0.52;;;20.60;58.20;;;;;;5012165;28;20066;-48
2023/10/21 09:09:27;;;;;;;0.80;0.30;;;20.60;58.10;;;;;;5014432;28;20050;-47
2023/10/21 09:12:11;;;;;;;1.40;0.43;;;20.60;58.10;;;;;;5014338;28;20046;-49
2023/10/21 09:14:59;;;;;;;0.60;0.40;;;20.60;58.00;;;;;;5011735;28;20030;-46
2023/10/21 09:17:39;;;;;;;0.47;0.38;;;20.60;57.90;;;;;;5012686;28;20388;-50
2023/10/21 09:20:10;;;;;;;0.68;0.47;;;20.60;57.80;;;;;;5010376;28;20026;-52
2023/10/21 09:22:37;;;;;;;0.45;0.32;;;20.60;57.80;;;;;;5010390;28;20144;-46
2023/10/21 09:25:20;;;;;;;1.02;0.40;;;20.60;57.70;;;;;;5010700;28;20484;-50
2023/10/21 09:27:49;;;;;;;1.08;0.30;;;20.60;57.60;;;;;;5009656;28;20148;-50
2023/10/21 09:30:17;;;;;;;3.03;0.40;;;20.60;57.60;;;;;;5010020;28;20033;-51
2023/10/21 09:32:46;;;;;;;2.50;0.40;;;20.60;57.50;;;;;;5010157;28;20087;-53
2023/10/21 09:35:14;;;;;;;0.57;0.38;;;20.60;57.50;;;;;;5007621;28;20025;-52
2023/10/21 09:37:41;;;;;;;0.68;0.20;;;20.60;57.30;;;;;;5007901;28;20048;-50
2023/10/21 09:40:08;;;;;;;0.50;0.32;;;20.60;57.30;;;;;;5009523;28;20026;-54
2023/10/21 09:42:47;;;;;;;1.10;0.28;;;20.60;57.20;;;;;;5007100;28;21023;-49
2023/10/21 09:45:15;;;;;;;1.02;0.30;;;20.60;57.10;;;;;;5004099;28;20030;-51
2023/10/21 09:47:42;;;;;;;0.70;0.40;;;20.60;57.00;;;;;;5009681;28;20037;-53
2023/10/21 09:50:14;;;;;;;0.82;0.30;;;20.60;56.90;;;;;;5008175;28;20110;-52
2023/10/21 09:52:51;;;;;;;0.40;0.30;;;20.70;56.80;;;;;;5009833;28;20034;-52
2023/10/21 09:55:24;;;;;;;0.88;0.40;;;20.70;56.70;;;;;;5010195;28;20062;-53
2023/10/21 09:57:53;;;;;;;1.17;0.40;;;20.60;56.50;;;;;;5008498;28;20053;-53
2023/10/21 10:00:20;;;;;;;0.63;0.30;;;20.70;56.50;;;;;;5010497;28;20030;-48
2023/10/21 10:02:50;;;;;;;0.52;0.20;;;20.70;56.40;;;;;;5009159;28;20834;-56
2023/10/21 10:05:17;;;;;;;0.40;0.28;;;20.70;56.30;;;;;;5008891;28;20025;-49
2023/10/21 10:07:45;;;;;;;0.90;0.28;;;20.70;56.20;;;;;;5008874;28;20026;-55
2023/10/21 10:10:14;;;;;;;0.82;0.30;;;20.70;56.20;;;;;;5006675;28;20030;-56
2023/10/21 10:12:57;;;;;;;0.82;0.30;;;20.70;56.10;;;;;;5008709;28;20029;-51
2023/10/21 10:15:31;;;;;;;0.95;0.30;;;20.70;55.90;;;;;;5008035;28;20052;-54
2023/10/21 10:17:58;;;;;;;1.08;0.30;;;20.70;55.80;;;;;;5005881;28;20044;-59
2023/10/21 10:20:25;;;;;;;2.58;0.40;;;20.70;55.80;;;;;;5010616;28;20030;-58
2023/10/21 10:23:04;;;;;;;1.25;0.50;;;20.70;55.80;;;;;;5009988;28;20038;-54
2023/10/21 10:25:32;;;;;;;0.47;0.20;;;20.80;56.00;;;;;;5007059;28;20021;-52
2023/10/21 10:28:04;;;;;;;0.60;0.30;;;20.80;56.30;;;;;;5009502;28;20060;-55
2023/10/21 10:30:31;;;;;;;0.45;0.25;;;20.80;55.60;;;;;;5007159;28;20096;-54
2023/10/21 10:33:01;;;;;;;1.20;0.38;;;20.90;55.40;;;;;;5008137;28;20038;-54
2023/10/21 10:35:31;;;;;;;0.55;0.28;;;20.90;55.20;;;;;;5007707;28;20053;-53
2023/10/21 10:37:59;;;;;;;0.63;0.20;;;20.90;55.00;;;;;;5008186;28;21118;-56
2023/10/21 10:40:38;;;;;;;1.05;0.30;;;20.90;54.90;;;;;;5006635;28;20030;-54
2023/10/21 10:43:10;;;;;;;1.58;0.50;;;20.90;54.70;;;;;;5006271;28;20132;-55
2023/10/21 10:45:37;;;;;;;0.75;0.30;;;20.90;54.70;;;;;;5007844;28;20457;-55
2023/10/21 10:48:04;;;;;;;0.13;0.13;;;20.90;54.70;;;;;;5007786;28;20049;-55
2023/10/21 10:50:30;;;;;;;1.33;0.40;;;20.90;54.60;;;;;;5006746;28;20465;-53
2023/10/21 10:52:57;;;;;;;0.38;0.30;;;20.90;54.50;;;;;;5007561;28;20025;-51
2023/10/21 10:55:23;;;;;;;0.47;0.28;;;20.90;54.40;;;;;;5008685;28;20066;-56
2023/10/21 10:57:51;;;;;;;0.32;0.25;;;21.00;54.40;;;;;;5007540;28;20156;-51
2023/10/21 11:00:25;;;;;;;0.63;0.20;;;20.90;54.20;;;;;;5009473;28;20021;-50
2023/10/21 11:02:51;;;;;;;2.00;0.30;;;21.00;54.20;;;;;;5001557;28;20062;-53
2023/10/21 11:05:20;;;;;;;1.48;0.30;;;21.00;54.10;;;;;;5007976;28;20053;-50
2023/10/21 11:07:55;;;;;;;1.60;0.28;;;21.00;53.90;;;;;;5007120;28;20033;-47
2023/10/21 11:10:23;;;;;;;1.33;0.40;;;21.00;53.70;;;;;;5005992;28;20045;-50
2023/10/21 11:12:49;;;;;;;1.42;0.30;;;21.00;53.60;;;;;;5006447;28;20488;-50
2023/10/21 11:15:16;;;;;;;0.75;0.30;;;21.00;53.60;;;;;;5005416;28;20183;-51
2023/10/21 11:17:47;;;;;;;1.05;0.40;;;21.10;53.50;;;;;;5009012;28;20036;-52
2023/10/21 11:20:14;;;;;;;0.57;0.30;;;21.10;53.30;;;;;;5006509;28;20042;-53
2023/10/21 11:22:41;;;;;;;1.00;0.40;;;21.10;53.20;;;;;;5008486;28;20595;-53
2023/10/21 11:25:07;;;;;;;1.10;0.60;;;21.10;53.10;;;;;;5006233;28;20045;-54
2023/10/21 11:27:34;;;;;;;1.55;0.40;;;21.10;53.10;;;;;;5006755;28;20041;-50
2023/10/21 11:30:01;;;;;;;1.50;0.40;;;21.10;53.10;;;;;;5006840;28;20046;-51
2023/10/21 11:32:31;;;;;;;0.65;0.30;;;21.10;53.00;;;;;;5007054;28;20038;-52
2023/10/21 11:35:04;;;;;;;1.98;0.50;;;21.20;53.00;;;;;;5007936;28;20457;-51
2023/10/21 11:37:38;;;;;;;1.48;0.25;;;21.20;53.00;;;;;;5002316;28;20038;-50
2023/10/21 11:40:05;;;;;;;1.25;0.50;;;21.20;52.90;;;;;;5003354;28;20047;-51
2023/10/21 11:42:32;;;;;;;1.10;0.40;;;21.20;52.80;;;;;;5002772;28;20042;-49
2023/10/21 11:45:00;;;;;;;2.50;0.57;;;21.20;52.70;;;;;;5003205;28;20033;-55
2023/10/21 11:47:27;;;;;;;0.60;0.32;;;21.20;52.50;;;;;;5003984;28;20037;-53
2023/10/21 11:49:54;;;;;;;1.40;0.90;;;21.20;52.40;;;;;;5003109;28;20050;-51
2023/10/21 11:52:21;;;;;;;1.35;0.57;;;21.20;52.30;;;;;;5002512;28;20026;-53
2023/10/21 12:40:30;;;;;;;0.88;0.40;;;21.90;50.80;;;;;;5013904;28;20098;-49
2023/10/21 12:43:24;;;;;;;3.55;0.65;;;22.00;50.70;;;;;;5013525;28;20109;-52
2023/10/21 12:45:54;;;;;;;2.20;0.60;;;22.10;50.70;;;;;;5011381;28;20060;-48
2023/10/21 12:48:20;;;;;;;0.70;0.40;;;22.20;50.70;;;;;;5009246;28;20113;-50
2023/10/21 12:50:54;;;;;;;0.98;0.43;;;22.20;50.50;;;;;;5009603;28;20033;-49
2023/10/21 12:53:21;;;;;;;;;;;22.30;50.30;;;;;;5008684;28;20034;-48
2023/10/21 12:55:47;;;;;;;1.95;0.65;;;22.40;50.20;;;;;;5013440;28;19952;-51
2023/10/21 12:58:14;;;;;;;1.25;0.43;;;22.40;50.10;;;;;;5009206;28;20040;-51
2023/10/21 13:00:43;;;;;;;2.58;0.40;;;22.50;50.00;;;;;;5012296;28;20528;-50
2023/10/21 13:03:13;;;;;;;1.90;0.55;;;22.50;49.80;;;;;;5012742;28;20038;-50
2023/10/21 13:05:39;;;;;;;1.88;0.50;;;22.50;49.50;;;;;;5012608;28;20026;-54
2023/10/21 13:08:09;;;;;;;4.03;0.50;;;22.60;49.40;;;;;;5011595;28;20341;-56
2023/10/21 13:10:38;;;;;;;1.40;0.55;;;22.60;49.30;;;;;;5013166;28;20038;-57
2023/10/21 13:13:06;;;;;;;2.17;0.63;;;22.60;49.20;;;;;;5014317;28;20120;-57
2023/10/21 13:15:32;;;;;;;2.10;0.60;;;22.70;49.20;;;;;;5008373;28;20057;-53
2023/10/21 13:17:58;;;;;;;1.45;0.50;;;22.70;49.10;;;;;;5010664;28;20504;-57
2023/10/21 13:20:24;;;;;;;1.50;0.82;;;22.70;49.00;;;;;;5010005;28;20126;-59
2023/10/21 13:22:54;;;;;;;0.88;0.43;;;22.80;48.90;;;;;;5008352;28;20071;-55
2023/10/21 13:25:20;;;;;;;1.77;0.60;;;22.80;48.90;;;;;;5012539;28;20030;-51
2023/10/21 13:27:47;;;;;;;1.70;0.60;;;22.80;48.80;;;;;;5011192;28;20026;-58
2023/10/21 13:30:16;;;;;;;1.13;0.50;;;22.80;48.60;;;;;;5011860;28;20354;-49
2023/10/21 13:32:47;;;;;;;1.73;0.60;;;22.80;48.60;;;;;;5010438;28;20034;-49
2023/10/21 13:35:15;;;;;;;1.75;0.60;;;22.70;48.40;;;;;;5012122;28;20088;-52